Kailua, HI (96734)

4:57 PM HST on August 29, 2016 (GMT -1000)
Kailua | | Change Station
Active Advisory: High Surf Advisory

Elev 20 ft 21.40 °N, 157.75 °W | Updated 23 seconds ago

Clear
Clear
82.9 °F
Feels Like 85 °F
N
6.3
Wind Variable Wind from NNE

Today
High -- | Low -- °F
--% Chance of Precip.
Yesterday
High -- | Low -- °F
Precip. -- in
Pressure 29.94 in
Visibility 7.0 miles
Clouds Clear
Heat Index 85 °F
Dew Point 67 °F
Humidity 58%
Rainfall 0.00 in
Snow Depth Not available.
6:13 AM 6:49 PM
Waning Crescent, 5% visible
METAR PHNG 300157Z 07009G18KT 7SM CLR 28/20 A2995 RMK AO2 SLP137 T02830200 $
Pressure 29.94 in
Visibility 7.0 miles
Clouds Clear
Heat Index 85 °F
Dew Point 67 °F
Humidity 58%
Rainfall 0.00 in
Snow Depth Not available.
6:13 AM 6:49 PM
Waning Crescent, 5% visible
METAR PHNG 300157Z 07009G18KT 7SM CLR 28/20 A2995 RMK AO2 SLP137 T02830200 $

10-Day Weather Forecast

Almanac

Astronomy

Aug. 29, 2016 Rise Set
Actual Time
Civil Twilight
Nautical Twilight
Astronomical Twilight
Moon
Length of Visible Light
Length of Day
Tomorrow will be .
, % of the Moon is Illuminated

Today's Extremes

State Highs State Lows

Community

WunderPhotos

Upload Photos

1,935,747 photos uploaded!

WunderBlog® & News

Nearby

Air Quality

  Air Quality AQ Index Pollutant
Not available.

Snow Depth

Station Depth Elevation

Earthquake Activity

City Distance Mag. Time & Date
Minimum magnitude displayed is 2.5.

Coastal Water Temperatures

Place Temperature

Stations

Nearby Weather Stations

Station Location Temp. Windchill Dew Point Humidity Wind Precip. Elev Updated Type
                   

Watches & Warnings

High Surf Advisory
Issued: 4:45 PM HST Aug. 29, 2016 – National Weather Service

... High surf advisory in effect from 6 PM Tuesday to 6 am HST
Thursday...

The National Weather Service in Honolulu has issued a high surf
advisory... which is in effect from 6 PM Tuesday to 6 am HST
Thursday.

* Surf... building to 5 to 9 feet Tuesday night.

* Timing... building late Tuesday and peaking Wednesday.

* Impacts... moderate... expect strong breaking waves... shore
break... and strong longshore and rip currents making swimming
difficult and dangerous.

Precautionary/preparedness actions...

Beachgoers... swimmers... and surfers should heed all advice given
by ocean safety officials and exercise caution.


Wroe